This is the latest recevied weather packets stored in our database for station/object KO4ZGL-13. If no packets are shown the sender has not sent any weather packets the latest 10 day(s).
| Time | Temp. | Humidity | Pressure | Rain* | Wind** | Luminosity | Snow |
|---|---|---|---|---|---|---|---|
| 1777900686 | 16.67° C | 93% | 1019.5 hPa | 0 mm | - | 327 W/m² | - |
| 1777900383 | 16.11° C | 96% | 1019.4 hPa | 0 mm | - | 332 W/m² | - |
| 1777900080 | 15.56° C | 97% | 1019.3 hPa | 0 mm | - | 142 W/m² | - |
| 1777899776 | 15° C | 98% | 1019.3 hPa | 0 mm | - | 108 W/m² | - |
| 1777899473 | 13.89° C | 99% | 1019.5 hPa | 0 mm | - | 103 W/m² | - |
| 1777899171 | 13.33° C | 99% | 1019.5 hPa | 0 mm | - | 90 W/m² | - |
| 1777898868 | 12.78° C | 99% | 1019.5 hPa | 0 mm | - | 52 W/m² | - |
| 1777898565 | 12.78° C | 99% | 1019.3 hPa | 0 mm | - | 50 W/m² | - |
| 1777898263 | 12.22° C | 99% | 1019.5 hPa | 0 mm | - | 44 W/m² | - |
| 1777897960 | 11.67° C | 99% | 1019.6 hPa | 0 mm | - | 47 W/m² | - |
| 1777897656 | 11.11° C | 99% | 1019.5 hPa | 0 mm | - | 62 W/m² | - |
| 1777897352 | 11.11° C | 99% | 1019.1 hPa | 0 mm | - | 90 W/m² | - |
| 1777897048 | 10° C | 99% | 1019.4 hPa | 0 mm | - | 46 W/m² | - |
| 1777896745 | 10° C | 99% | 1019 hPa | 0 mm | - | 42 W/m² | - |
| 1777896442 | 9.44° C | 99% | 1019 hPa | 0 mm | - | 48 W/m² | - |
| 1777896140 | 9.44° C | 99% | 1019.1 hPa | 0 mm | - | 34 W/m² | - |
| 1777895838 | 8.89° C | 99% | 1019 hPa | 0 mm | - | 32 W/m² | - |
| 1777895535 | 8.89° C | 99% | 1018.9 hPa | 0 mm | - | 31 W/m² | - |
| 1777895232 | 8.89° C | 99% | 1018.8 hPa | 0 mm | - | 32 W/m² | - |
| 1777894924 | 8.89° C | 99% | 1018.9 hPa | 0 mm | - | 30 W/m² | - |
| 1777894621 | 8.33° C | 99% | 1018.9 hPa | 0 mm | - | 32 W/m² | - |
| 1777894318 | 8.33° C | 99% | 1018.8 hPa | 0 mm | - | 27 W/m² | - |
| 1777894015 | 7.78° C | 99% | 1018.8 hPa | 0 mm | - | 24 W/m² | - |
| 1777893711 | 7.78° C | 99% | 1018.7 hPa | 0 mm | - | 22 W/m² | - |
| 1777893408 | 7.78° C | 99% | 1018.6 hPa | 0 mm | - | 19 W/m² | - |
* Rain latest hour (hover to see other rain measurements)
** Current wind speed in m/s (hover to see current wind gust speed)